sensor_id;sensor_type;location;lat;lon;timestamp;P1;durP1;ratioP1;P2;durP2;ratioP2
54945;SDS011;40846;44.788;20.486;2023-04-15T00:00:41;9.98;;;6.13;;
54945;SDS011;40846;44.788;20.486;2023-04-15T00:03:07;11.88;;;6.53;;
54945;SDS011;40846;44.788;20.486;2023-04-15T00:05:33;12.48;;;5.47;;
54945;SDS011;40846;44.788;20.486;2023-04-15T00:07:59;13.95;;;6.18;;
54945;SDS011;40846;44.788;20.486;2023-04-15T00:10:25;14.57;;;5.97;;
54945;SDS011;40846;44.788;20.486;2023-04-15T00:12:52;15.75;;;7.63;;
54945;SDS011;40846;44.788;20.486;2023-04-15T00:15:19;13.50;;;7.13;;
54945;SDS011;40846;44.788;20.486;2023-04-15T00:17:48;16.88;;;6.05;;
54945;SDS011;40846;44.788;20.486;2023-04-15T00:20:16;11.52;;;5.50;;
54945;SDS011;40846;44.788;20.486;2023-04-15T00:22:45;11.32;;;4.85;;
54945;SDS011;40846;44.788;20.486;2023-04-15T00:25:15;11.45;;;5.35;;
54945;SDS011;40846;44.788;20.486;2023-04-15T00:27:42;10.30;;;4.80;;
54945;SDS011;40846;44.788;20.486;2023-04-15T00:30:08;10.60;;;4.10;;
54945;SDS011;40846;44.788;20.486;2023-04-15T00:32:39;6.95;;;3.88;;
54945;SDS011;40846;44.788;20.486;2023-04-15T00:35:06;8.95;;;3.90;;
54945;SDS011;40846;44.788;20.486;2023-04-15T00:37:34;9.88;;;3.88;;
54945;SDS011;40846;44.788;20.486;2023-04-15T00:40:04;8.35;;;3.92;;
54945;SDS011;40846;44.788;20.486;2023-04-15T00:42:36;9.55;;;3.78;;
54945;SDS011;40846;44.788;20.486;2023-04-15T00:45:03;8.77;;;3.90;;
54945;SDS011;40846;44.788;20.486;2023-04-15T00:47:34;10.88;;;3.65;;
54945;SDS011;40846;44.788;20.486;2023-04-15T00:50:14;7.43;;;3.72;;
54945;SDS011;40846;44.788;20.486;2023-04-15T00:52:40;8.68;;;3.80;;
54945;SDS011;40846;44.788;20.486;2023-04-15T00:55:07;8.38;;;3.22;;
54945;SDS011;40846;44.788;20.486;2023-04-15T00:57:48;7.60;;;3.58;;
54945;SDS011;40846;44.788;20.486;2023-04-15T01:00:15;10.95;;;3.75;;
54945;SDS011;40846;44.788;20.486;2023-04-15T01:02:44;7.85;;;3.78;;
54945;SDS011;40846;44.788;20.486;2023-04-15T01:05:11;8.05;;;3.38;;
54945;SDS011;40846;44.788;20.486;2023-04-15T01:07:37;10.07;;;3.28;;
54945;SDS011;40846;44.788;20.486;2023-04-15T01:10:03;10.68;;;3.97;;
54945;SDS011;40846;44.788;20.486;2023-04-15T01:12:31;10.32;;;3.70;;
54945;SDS011;40846;44.788;20.486;2023-04-15T01:14:58;9.73;;;4.47;;
54945;SDS011;40846;44.788;20.486;2023-04-15T01:17:24;7.80;;;3.30;;
54945;SDS011;40846;44.788;20.486;2023-04-15T01:19:50;6.85;;;3.25;;
54945;SDS011;40846;44.788;20.486;2023-04-15T01:22:17;9.05;;;3.83;;
54945;SDS011;40846;44.788;20.486;2023-04-15T01:24:46;8.52;;;3.47;;
54945;SDS011;40846;44.788;20.486;2023-04-15T01:27:16;8.48;;;2.72;;
54945;SDS011;40846;44.788;20.486;2023-04-15T01:29:42;6.43;;;2.97;;
54945;SDS011;40846;44.788;20.486;2023-04-15T01:32:08;8.25;;;3.25;;
54945;SDS011;40846;44.788;20.486;2023-04-15T01:34:36;9.07;;;4.07;;
54945;SDS011;40846;44.788;20.486;2023-04-15T01:37:02;10.63;;;4.03;;
54945;SDS011;40846;44.788;20.486;2023-04-15T01:39:28;7.95;;;3.30;;
54945;SDS011;40846;44.788;20.486;2023-04-15T01:41:54;9.40;;;2.80;;
54945;SDS011;40846;44.788;20.486;2023-04-15T01:44:21;9.48;;;2.95;;
54945;SDS011;40846;44.788;20.486;2023-04-15T01:46:48;8.35;;;2.80;;
54945;SDS011;40846;44.788;20.486;2023-04-15T01:49:14;5.65;;;2.28;;
54945;SDS011;40846;44.788;20.486;2023-04-15T01:51:40;7.18;;;2.17;;
54945;SDS011;40846;44.788;20.486;2023-04-15T01:54:08;6.90;;;2.40;;
54945;SDS011;40846;44.788;20.486;2023-04-15T01:56:34;6.13;;;1.98;;
54945;SDS011;40846;44.788;20.486;2023-04-15T01:59:00;11.15;;;2.95;;
54945;SDS011;40846;44.788;20.486;2023-04-15T02:01:27;7.82;;;2.97;;
54945;SDS011;40846;44.788;20.486;2023-04-15T02:03:53;8.13;;;2.75;;
54945;SDS011;40846;44.788;20.486;2023-04-15T02:06:20;8.82;;;2.70;;
54945;SDS011;40846;44.788;20.486;2023-04-15T02:08:46;6.38;;;2.17;;
54945;SDS011;40846;44.788;20.486;2023-04-15T02:11:12;5.88;;;1.88;;
54945;SDS011;40846;44.788;20.486;2023-04-15T02:13:39;6.93;;;2.30;;
54945;SDS011;40846;44.788;20.486;2023-04-15T02:16:14;5.38;;;2.22;;
54945;SDS011;40846;44.788;20.486;2023-04-15T02:18:40;4.63;;;1.48;;
54945;SDS011;40846;44.788;20.486;2023-04-15T02:21:07;3.97;;;1.42;;
54945;SDS011;40846;44.788;20.486;2023-04-15T02:23:33;3.60;;;1.65;;
54945;SDS011;40846;44.788;20.486;2023-04-15T02:25:59;5.68;;;1.65;;
54945;SDS011;40846;44.788;20.486;2023-04-15T02:28:26;3.38;;;1.48;;
54945;SDS011;40846;44.788;20.486;2023-04-15T02:30:53;4.22;;;1.65;;
54945;SDS011;40846;44.788;20.486;2023-04-15T02:33:21;4.43;;;1.63;;
54945;SDS011;40846;44.788;20.486;2023-04-15T02:35:47;4.60;;;1.63;;
54945;SDS011;40846;44.788;20.486;2023-04-15T02:38:13;4.65;;;1.50;;
54945;SDS011;40846;44.788;20.486;2023-04-15T02:40:41;3.78;;;1.52;;
54945;SDS011;40846;44.788;20.486;2023-04-15T02:43:08;6.70;;;2.42;;
54945;SDS011;40846;44.788;20.486;2023-04-15T02:45:34;3.95;;;1.83;;
54945;SDS011;40846;44.788;20.486;2023-04-15T02:48:00;4.55;;;1.27;;
54945;SDS011;40846;44.788;20.486;2023-04-15T02:50:30;6.00;;;1.58;;
54945;SDS011;40846;44.788;20.486;2023-04-15T02:52:56;2.45;;;1.20;;
54945;SDS011;40846;44.788;20.486;2023-04-15T02:55:22;3.97;;;1.48;;
54945;SDS011;40846;44.788;20.486;2023-04-15T02:57:48;3.55;;;1.48;;
54945;SDS011;40846;44.788;20.486;2023-04-15T03:00:14;5.60;;;1.83;;
54945;SDS011;40846;44.788;20.486;2023-04-15T03:02:40;3.95;;;1.40;;
54945;SDS011;40846;44.788;20.486;2023-04-15T03:05:10;6.82;;;2.85;;
54945;SDS011;40846;44.788;20.486;2023-04-15T03:07:36;4.75;;;1.98;;
54945;SDS011;40846;44.788;20.486;2023-04-15T03:10:04;4.75;;;1.67;;
54945;SDS011;40846;44.788;20.486;2023-04-15T03:12:30;4.25;;;1.42;;
54945;SDS011;40846;44.788;20.486;2023-04-15T03:14:56;3.83;;;1.58;;
54945;SDS011;40846;44.788;20.486;2023-04-15T03:17:22;5.10;;;2.30;;
54945;SDS011;40846;44.788;20.486;2023-04-15T03:19:48;4.65;;;2.08;;
54945;SDS011;40846;44.788;20.486;2023-04-15T03:22:14;7.55;;;2.10;;
54945;SDS011;40846;44.788;20.486;2023-04-15T03:24:41;9.05;;;3.25;;
54945;SDS011;40846;44.788;20.486;2023-04-15T03:27:07;5.47;;;2.13;;
54945;SDS011;40846;44.788;20.486;2023-04-15T03:29:33;4.30;;;1.92;;
54945;SDS011;40846;44.788;20.486;2023-04-15T03:31:59;4.45;;;1.70;;
54945;SDS011;40846;44.788;20.486;2023-04-15T03:34:25;3.00;;;1.13;;
54945;SDS011;40846;44.788;20.486;2023-04-15T03:36:51;5.88;;;1.20;;
54945;SDS011;40846;44.788;20.486;2023-04-15T03:39:17;3.40;;;1.35;;
54945;SDS011;40846;44.788;20.486;2023-04-15T03:41:44;6.53;;;1.30;;
54945;SDS011;40846;44.788;20.486;2023-04-15T03:44:10;3.35;;;1.17;;
54945;SDS011;40846;44.788;20.486;2023-04-15T03:46:36;3.35;;;1.30;;
54945;SDS011;40846;44.788;20.486;2023-04-15T03:49:02;5.68;;;1.58;;
54945;SDS011;40846;44.788;20.486;2023-04-15T03:51:28;5.22;;;1.95;;
54945;SDS011;40846;44.788;20.486;2023-04-15T03:53:55;4.53;;;1.83;;
54945;SDS011;40846;44.788;20.486;2023-04-15T03:56:22;4.45;;;1.50;;
54945;SDS011;40846;44.788;20.486;2023-04-15T03:58:49;4.82;;;1.27;;
54945;SDS011;40846;44.788;20.486;2023-04-15T04:01:15;3.55;;;1.08;;
54945;SDS011;40846;44.788;20.486;2023-04-15T04:03:41;3.55;;;1.33;;
54945;SDS011;40846;44.788;20.486;2023-04-15T04:06:08;3.80;;;1.40;;
54945;SDS011;40846;44.788;20.486;2023-04-15T04:08:36;2.90;;;1.23;;
54945;SDS011;40846;44.788;20.486;2023-04-15T04:11:02;3.63;;;1.50;;
54945;SDS011;40846;44.788;20.486;2023-04-15T04:13:29;3.03;;;1.40;;
54945;SDS011;40846;44.788;20.486;2023-04-15T04:15:55;3.35;;;1.38;;
54945;SDS011;40846;44.788;20.486;2023-04-15T04:18:24;3.85;;;1.30;;
54945;SDS011;40846;44.788;20.486;2023-04-15T04:20:50;6.38;;;2.72;;
54945;SDS011;40846;44.788;20.486;2023-04-15T04:23:16;7.80;;;3.20;;
54945;SDS011;40846;44.788;20.486;2023-04-15T04:25:42;8.90;;;3.53;;
54945;SDS011;40846;44.788;20.486;2023-04-15T04:28:08;6.25;;;2.53;;
54945;SDS011;40846;44.788;20.486;2023-04-15T04:30:35;6.10;;;2.53;;
54945;SDS011;40846;44.788;20.486;2023-04-15T04:33:02;8.32;;;2.58;;
54945;SDS011;40846;44.788;20.486;2023-04-15T04:35:28;3.97;;;1.50;;
54945;SDS011;40846;44.788;20.486;2023-04-15T04:37:54;3.20;;;1.40;;
54945;SDS011;40846;44.788;20.486;2023-04-15T04:40:20;4.25;;;1.58;;
54945;SDS011;40846;44.788;20.486;2023-04-15T04:42:46;6.30;;;1.13;;
54945;SDS011;40846;44.788;20.486;2023-04-15T04:45:12;3.72;;;1.23;;
54945;SDS011;40846;44.788;20.486;2023-04-15T04:47:39;3.40;;;1.17;;
54945;SDS011;40846;44.788;20.486;2023-04-15T04:50:05;3.78;;;1.52;;
54945;SDS011;40846;44.788;20.486;2023-04-15T04:52:31;4.53;;;1.42;;
54945;SDS011;40846;44.788;20.486;2023-04-15T04:54:57;5.38;;;2.03;;
54945;SDS011;40846;44.788;20.486;2023-04-15T04:57:23;3.25;;;1.67;;
54945;SDS011;40846;44.788;20.486;2023-04-15T04:59:49;4.65;;;1.52;;
54945;SDS011;40846;44.788;20.486;2023-04-15T05:02:15;5.05;;;2.10;;
54945;SDS011;40846;44.788;20.486;2023-04-15T05:04:41;4.00;;;1.67;;
54945;SDS011;40846;44.788;20.486;2023-04-15T05:07:08;3.22;;;1.55;;
54945;SDS011;40846;44.788;20.486;2023-04-15T05:09:33;4.75;;;1.45;;
54945;SDS011;40846;44.788;20.486;2023-04-15T05:12:00;3.70;;;1.80;;
54945;SDS011;40846;44.788;20.486;2023-04-15T05:14:27;4.90;;;1.75;;
54945;SDS011;40846;44.788;20.486;2023-04-15T05:16:53;3.10;;;1.70;;
54945;SDS011;40846;44.788;20.486;2023-04-15T05:19:20;4.85;;;1.70;;
54945;SDS011;40846;44.788;20.486;2023-04-15T05:21:46;4.43;;;2.17;;
54945;SDS011;40846;44.788;20.486;2023-04-15T05:24:12;4.00;;;2.13;;
54945;SDS011;40846;44.788;20.486;2023-04-15T05:26:43;5.82;;;2.92;;
54945;SDS011;40846;44.788;20.486;2023-04-15T05:29:10;8.45;;;3.92;;
54945;SDS011;40846;44.788;20.486;2023-04-15T05:31:36;6.13;;;2.60;;
54945;SDS011;40846;44.788;20.486;2023-04-15T05:34:01;6.55;;;2.38;;
54945;SDS011;40846;44.788;20.486;2023-04-15T05:36:27;7.47;;;2.50;;
54945;SDS011;40846;44.788;20.486;2023-04-15T05:38:53;6.20;;;2.22;;
54945;SDS011;40846;44.788;20.486;2023-04-15T05:41:18;11.52;;;2.28;;
54945;SDS011;40846;44.788;20.486;2023-04-15T05:43:44;4.28;;;1.60;;
54945;SDS011;40846;44.788;20.486;2023-04-15T05:46:10;4.53;;;1.80;;
54945;SDS011;40846;44.788;20.486;2023-04-15T05:48:36;5.60;;;2.03;;
54945;SDS011;40846;44.788;20.486;2023-04-15T05:51:02;5.93;;;2.78;;
54945;SDS011;40846;44.788;20.486;2023-04-15T05:53:28;9.10;;;2.70;;
54945;SDS011;40846;44.788;20.486;2023-04-15T05:55:53;6.40;;;2.30;;
54945;SDS011;40846;44.788;20.486;2023-04-15T05:58:19;5.10;;;1.90;;
54945;SDS011;40846;44.788;20.486;2023-04-15T06:00:46;4.97;;;1.73;;
54945;SDS011;40846;44.788;20.486;2023-04-15T06:03:12;5.93;;;1.50;;
54945;SDS011;40846;44.788;20.486;2023-04-15T06:05:38;3.80;;;1.77;;
54945;SDS011;40846;44.788;20.486;2023-04-15T06:08:04;3.38;;;1.13;;
54945;SDS011;40846;44.788;20.486;2023-04-15T06:10:30;3.40;;;1.30;;
54945;SDS011;40846;44.788;20.486;2023-04-15T06:13:00;5.43;;;1.30;;
54945;SDS011;40846;44.788;20.486;2023-04-15T06:15:29;4.45;;;1.40;;
54945;SDS011;40846;44.788;20.486;2023-04-15T06:17:55;3.05;;;1.65;;
54945;SDS011;40846;44.788;20.486;2023-04-15T06:20:21;6.10;;;1.70;;
54945;SDS011;40846;44.788;20.486;2023-04-15T06:22:48;5.47;;;1.73;;
54945;SDS011;40846;44.788;20.486;2023-04-15T06:25:13;4.40;;;1.90;;
54945;SDS011;40846;44.788;20.486;2023-04-15T06:27:39;4.97;;;1.17;;
54945;SDS011;40846;44.788;20.486;2023-04-15T06:30:05;5.85;;;2.67;;
54945;SDS011;40846;44.788;20.486;2023-04-15T06:32:31;3.97;;;1.77;;
54945;SDS011;40846;44.788;20.486;2023-04-15T06:34:57;3.78;;;1.60;;
54945;SDS011;40846;44.788;20.486;2023-04-15T06:37:23;2.03;;;1.10;;
54945;SDS011;40846;44.788;20.486;2023-04-15T06:39:49;6.43;;;1.40;;
54945;SDS011;40846;44.788;20.486;2023-04-15T06:42:15;1.35;;;0.73;;
54945;SDS011;40846;44.788;20.486;2023-04-15T06:44:41;2.40;;;1.00;;
54945;SDS011;40846;44.788;20.486;2023-04-15T06:47:07;3.17;;;1.02;;
54945;SDS011;40846;44.788;20.486;2023-04-15T06:49:33;3.92;;;1.50;;
54945;SDS011;40846;44.788;20.486;2023-04-15T06:51:59;1.73;;;0.90;;
54945;SDS011;40846;44.788;20.486;2023-04-15T06:54:25;3.40;;;1.50;;
54945;SDS011;40846;44.788;20.486;2023-04-15T06:56:51;2.70;;;1.20;;
54945;SDS011;40846;44.788;20.486;2023-04-15T06:59:17;4.22;;;1.23;;
54945;SDS011;40846;44.788;20.486;2023-04-15T07:01:43;3.78;;;1.73;;
54945;SDS011;40846;44.788;20.486;2023-04-15T07:04:09;2.25;;;1.10;;
54945;SDS011;40846;44.788;20.486;2023-04-15T07:06:36;2.25;;;0.85;;
54945;SDS011;40846;44.788;20.486;2023-04-15T07:09:02;1.33;;;0.70;;
54945;SDS011;40846;44.788;20.486;2023-04-15T07:11:29;1.92;;;0.57;;
54945;SDS011;40846;44.788;20.486;2023-04-15T07:13:56;1.58;;;0.70;;
54945;SDS011;40846;44.788;20.486;2023-04-15T07:16:23;2.00;;;0.73;;
54945;SDS011;40846;44.788;20.486;2023-04-15T07:18:49;1.73;;;0.88;;
54945;SDS011;40846;44.788;20.486;2023-04-15T07:21:15;4.03;;;1.17;;
54945;SDS011;40846;44.788;20.486;2023-04-15T07:23:41;2.22;;;0.80;;
54945;SDS011;40846;44.788;20.486;2023-04-15T07:26:07;4.93;;;1.30;;
54945;SDS011;40846;44.788;20.486;2023-04-15T07:28:36;1.95;;;0.90;;
54945;SDS011;40846;44.788;20.486;2023-04-15T07:31:02;2.28;;;0.82;;
54945;SDS011;40846;44.788;20.486;2023-04-15T07:33:31;3.40;;;0.90;;
54945;SDS011;40846;44.788;20.486;2023-04-15T07:35:57;4.15;;;0.73;;
54945;SDS011;40846;44.788;20.486;2023-04-15T07:38:23;1.98;;;0.90;;
54945;SDS011;40846;44.788;20.486;2023-04-15T07:40:49;3.53;;;1.55;;
54945;SDS011;40846;44.788;20.486;2023-04-15T07:43:15;2.70;;;1.38;;
54945;SDS011;40846;44.788;20.486;2023-04-15T07:45:42;1.42;;;0.77;;
54945;SDS011;40846;44.788;20.486;2023-04-15T07:48:09;4.95;;;1.50;;
54945;SDS011;40846;44.788;20.486;2023-04-15T07:50:35;1.92;;;1.00;;
54945;SDS011;40846;44.788;20.486;2023-04-15T07:53:02;2.20;;;1.15;;
54945;SDS011;40846;44.788;20.486;2023-04-15T07:55:28;2.72;;;1.00;;
54945;SDS011;40846;44.788;20.486;2023-04-15T07:57:54;2.10;;;0.90;;
54945;SDS011;40846;44.788;20.486;2023-04-15T08:00:21;3.28;;;1.20;;
54945;SDS011;40846;44.788;20.486;2023-04-15T08:02:47;2.63;;;0.90;;
54945;SDS011;40846;44.788;20.486;2023-04-15T08:05:13;2.17;;;0.80;;
54945;SDS011;40846;44.788;20.486;2023-04-15T08:07:39;7.53;;;1.40;;
54945;SDS011;40846;44.788;20.486;2023-04-15T08:10:05;2.53;;;1.23;;
54945;SDS011;40846;44.788;20.486;2023-04-15T08:12:32;6.35;;;1.50;;
54945;SDS011;40846;44.788;20.486;2023-04-15T08:14:58;2.88;;;1.38;;
54945;SDS011;40846;44.788;20.486;2023-04-15T08:17:24;3.30;;;1.38;;
54945;SDS011;40846;44.788;20.486;2023-04-15T08:20:25;6.33;;;1.30;;
54945;SDS011;40846;44.788;20.486;2023-04-15T08:22:54;3.03;;;1.00;;
54945;SDS011;40846;44.788;20.486;2023-04-15T08:25:35;3.20;;;0.80;;
54945;SDS011;40846;44.788;20.486;2023-04-15T08:28:03;4.28;;;1.05;;
54945;SDS011;40846;44.788;20.486;2023-04-15T08:30:32;1.35;;;0.73;;
54945;SDS011;40846;44.788;20.486;2023-04-15T08:33:01;2.03;;;0.93;;
54945;SDS011;40846;44.788;20.486;2023-04-15T08:35:27;4.22;;;1.05;;
54945;SDS011;40846;44.788;20.486;2023-04-15T08:37:53;5.78;;;1.10;;
54945;SDS011;40846;44.788;20.486;2023-04-15T08:43:21;2.30;;;0.88;;
54945;SDS011;40846;44.788;20.486;2023-04-15T08:45:50;3.72;;;1.30;;
54945;SDS011;40846;44.788;20.486;2023-04-15T08:48:19;2.38;;;1.08;;
54945;SDS011;40846;44.788;20.486;2023-04-15T08:50:47;4.82;;;0.80;;
54945;SDS011;40846;44.788;20.486;2023-04-15T08:53:13;4.15;;;1.40;;
54945;SDS011;40846;44.788;20.486;2023-04-15T08:55:43;5.95;;;0.70;;
54945;SDS011;40846;44.788;20.486;2023-04-15T08:58:09;3.53;;;1.20;;
54945;SDS011;40846;44.788;20.486;2023-04-15T09:00:36;4.72;;;1.58;;
54945;SDS011;40846;44.788;20.486;2023-04-15T09:03:05;2.47;;;1.05;;
54945;SDS011;40846;44.788;20.486;2023-04-15T09:05:32;1.88;;;1.10;;
54945;SDS011;40846;44.788;20.486;2023-04-15T09:07:59;5.03;;;1.25;;
54945;SDS011;40846;44.788;20.486;2023-04-15T09:10:26;1.80;;;1.08;;
54945;SDS011;40846;44.788;20.486;2023-04-15T09:12:52;2.05;;;1.08;;
54945;SDS011;40846;44.788;20.486;2023-04-15T09:15:21;2.70;;;1.15;;
54945;SDS011;40846;44.788;20.486;2023-04-15T09:17:49;4.40;;;1.90;;
54945;SDS011;40846;44.788;20.486;2023-04-15T09:20:16;5.45;;;1.80;;
54945;SDS011;40846;44.788;20.486;2023-04-15T09:22:45;13.43;;;2.17;;
54945;SDS011;40846;44.788;20.486;2023-04-15T09:27:53;3.70;;;1.63;;
54945;SDS011;40846;44.788;20.486;2023-04-15T09:30:23;3.35;;;1.50;;
54945;SDS011;40846;44.788;20.486;2023-04-15T09:35:26;2.35;;;1.13;;
54945;SDS011;40846;44.788;20.486;2023-04-15T09:37:52;2.45;;;1.10;;
54945;SDS011;40846;44.788;20.486;2023-04-15T09:43:02;2.45;;;1.33;;
54945;SDS011;40846;44.788;20.486;2023-04-15T09:45:29;2.67;;;1.10;;
54945;SDS011;40846;44.788;20.486;2023-04-15T09:47:58;2.28;;;1.10;;
54945;SDS011;40846;44.788;20.486;2023-04-15T09:50:28;4.03;;;1.05;;
54945;SDS011;40846;44.788;20.486;2023-04-15T09:52:54;2.95;;;1.20;;
54945;SDS011;40846;44.788;20.486;2023-04-15T09:55:20;2.00;;;1.05;;
54945;SDS011;40846;44.788;20.486;2023-04-15T09:57:46;3.00;;;0.90;;
54945;SDS011;40846;44.788;20.486;2023-04-15T10:00:12;2.38;;;1.48;;
54945;SDS011;40846;44.788;20.486;2023-04-15T10:02:39;3.88;;;1.77;;
54945;SDS011;40846;44.788;20.486;2023-04-15T10:05:06;2.80;;;0.88;;
54945;SDS011;40846;44.788;20.486;2023-04-15T10:07:34;2.15;;;1.13;;
54945;SDS011;40846;44.788;20.486;2023-04-15T10:10:00;2.78;;;0.98;;
54945;SDS011;40846;44.788;20.486;2023-04-15T10:12:28;1.52;;;0.93;;
54945;SDS011;40846;44.788;20.486;2023-04-15T10:14:57;3.08;;;1.20;;
54945;SDS011;40846;44.788;20.486;2023-04-15T10:17:25;3.13;;;1.50;;
54945;SDS011;40846;44.788;20.486;2023-04-15T10:19:59;2.72;;;0.88;;
54945;SDS011;40846;44.788;20.486;2023-04-15T10:22:27;2.13;;;0.95;;
54945;SDS011;40846;44.788;20.486;2023-04-15T10:24:54;2.17;;;0.82;;
54945;SDS011;40846;44.788;20.486;2023-04-15T10:27:21;3.60;;;1.00;;
54945;SDS011;40846;44.788;20.486;2023-04-15T10:29:48;1.77;;;0.80;;
54945;SDS011;40846;44.788;20.486;2023-04-15T10:32:16;2.97;;;0.80;;
54945;SDS011;40846;44.788;20.486;2023-04-15T10:34:44;2.63;;;1.38;;
54945;SDS011;40846;44.788;20.486;2023-04-15T10:37:12;3.30;;;1.30;;
54945;SDS011;40846;44.788;20.486;2023-04-15T10:39:44;3.60;;;1.20;;
54945;SDS011;40846;44.788;20.486;2023-04-15T10:44:37;2.22;;;1.00;;
54945;SDS011;40846;44.788;20.486;2023-04-15T10:47:09;2.53;;;0.90;;
54945;SDS011;40846;44.788;20.486;2023-04-15T10:49:43;3.25;;;1.23;;
54945;SDS011;40846;44.788;20.486;2023-04-15T10:52:11;2.10;;;1.00;;
54945;SDS011;40846;44.788;20.486;2023-04-15T10:54:38;1.80;;;0.90;;
54945;SDS011;40846;44.788;20.486;2023-04-15T10:59:35;2.78;;;1.00;;
54945;SDS011;40846;44.788;20.486;2023-04-15T11:02:23;3.72;;;1.50;;
54945;SDS011;40846;44.788;20.486;2023-04-15T11:08:06;3.63;;;0.82;;
54945;SDS011;40846;44.788;20.486;2023-04-15T11:18:08;3.33;;;1.00;;
54945;SDS011;40846;44.788;20.486;2023-04-15T11:20:46;2.92;;;0.90;;
54945;SDS011;40846;44.788;20.486;2023-04-15T11:23:16;2.42;;;1.42;;
54945;SDS011;40846;44.788;20.486;2023-04-15T11:25:43;5.85;;;1.65;;
54945;SDS011;40846;44.788;20.486;2023-04-15T11:28:09;4.20;;;1.52;;
54945;SDS011;40846;44.788;20.486;2023-04-15T11:30:37;22.20;;;12.32;;
54945;SDS011;40846;44.788;20.486;2023-04-15T11:33:07;3.85;;;2.17;;
54945;SDS011;40846;44.788;20.486;2023-04-15T11:35:34;4.18;;;1.77;;
54945;SDS011;40846;44.788;20.486;2023-04-15T11:38:04;10.25;;;3.30;;
54945;SDS011;40846;44.788;20.486;2023-04-15T11:40:32;5.75;;;2.63;;
54945;SDS011;40846;44.788;20.486;2023-04-15T11:43:18;6.75;;;2.47;;
54945;SDS011;40846;44.788;20.486;2023-04-15T11:48:19;4.15;;;1.55;;
54945;SDS011;40846;44.788;20.486;2023-04-15T11:50:51;7.13;;;2.47;;
54945;SDS011;40846;44.788;20.486;2023-04-15T11:53:21;15.30;;;4.32;;
54945;SDS011;40846;44.788;20.486;2023-04-15T11:55:49;9.73;;;2.65;;
54945;SDS011;40846;44.788;20.486;2023-04-15T11:58:20;19.17;;;6.32;;
54945;SDS011;40846;44.788;20.486;2023-04-15T12:00:47;13.95;;;5.63;;
54945;SDS011;40846;44.788;20.486;2023-04-15T12:08:50;2.70;;;1.33;;
54945;SDS011;40846;44.788;20.486;2023-04-15T12:14:10;3.38;;;1.48;;
54945;SDS011;40846;44.788;20.486;2023-04-15T12:16:41;4.20;;;1.63;;
54945;SDS011;40846;44.788;20.486;2023-04-15T12:19:37;7.30;;;1.55;;
54945;SDS011;40846;44.788;20.486;2023-04-15T12:22:03;2.72;;;1.40;;
54945;SDS011;40846;44.788;20.486;2023-04-15T12:24:33;8.23;;;2.05;;
54945;SDS011;40846;44.788;20.486;2023-04-15T12:27:03;2.40;;;1.08;;
54945;SDS011;40846;44.788;20.486;2023-04-15T12:29:31;6.00;;;2.45;;
54945;SDS011;40846;44.788;20.486;2023-04-15T12:34:37;4.38;;;1.75;;
54945;SDS011;40846;44.788;20.486;2023-04-15T12:37:05;4.07;;;1.50;;
54945;SDS011;40846;44.788;20.486;2023-04-15T12:39:34;3.95;;;1.70;;
54945;SDS011;40846;44.788;20.486;2023-04-15T12:42:01;4.03;;;1.55;;
54945;SDS011;40846;44.788;20.486;2023-04-15T12:44:28;9.40;;;1.92;;
54945;SDS011;40846;44.788;20.486;2023-04-15T12:46:54;6.63;;;2.13;;
54945;SDS011;40846;44.788;20.486;2023-04-15T12:49:20;3.95;;;1.55;;
54945;SDS011;40846;44.788;20.486;2023-04-15T12:51:52;3.67;;;1.58;;
54945;SDS011;40846;44.788;20.486;2023-04-15T12:54:33;3.20;;;1.35;;
54945;SDS011;40846;44.788;20.486;2023-04-15T12:57:00;4.30;;;1.30;;
54945;SDS011;40846;44.788;20.486;2023-04-15T12:59:27;1.75;;;0.82;;
54945;SDS011;40846;44.788;20.486;2023-04-15T13:01:53;3.75;;;1.00;;
54945;SDS011;40846;44.788;20.486;2023-04-15T13:04:22;3.20;;;1.30;;
54945;SDS011;40846;44.788;20.486;2023-04-15T13:06:54;11.75;;;1.20;;
54945;SDS011;40846;44.788;20.486;2023-04-15T13:09:24;2.72;;;1.30;;
54945;SDS011;40846;44.788;20.486;2023-04-15T13:11:50;3.08;;;1.30;;
54945;SDS011;40846;44.788;20.486;2023-04-15T13:14:16;2.63;;;1.42;;
54945;SDS011;40846;44.788;20.486;2023-04-15T13:16:42;3.90;;;1.95;;
54945;SDS011;40846;44.788;20.486;2023-04-15T13:19:09;1.98;;;0.80;;
54945;SDS011;40846;44.788;20.486;2023-04-15T13:24:32;6.80;;;1.35;;
54945;SDS011;40846;44.788;20.486;2023-04-15T13:27:01;1.65;;;0.90;;
54945;SDS011;40846;44.788;20.486;2023-04-15T13:29:28;2.63;;;1.15;;
54945;SDS011;40846;44.788;20.486;2023-04-15T13:31:54;3.08;;;1.30;;
54945;SDS011;40846;44.788;20.486;2023-04-15T13:34:20;3.72;;;1.20;;
54945;SDS011;40846;44.788;20.486;2023-04-15T13:36:46;4.05;;;1.33;;
54945;SDS011;40846;44.788;20.486;2023-04-15T13:39:12;4.78;;;1.08;;
54945;SDS011;40846;44.788;20.486;2023-04-15T13:41:38;2.70;;;0.90;;
54945;SDS011;40846;44.788;20.486;2023-04-15T13:44:04;3.42;;;1.08;;
54945;SDS011;40846;44.788;20.486;2023-04-15T13:46:31;2.50;;;1.13;;
54945;SDS011;40846;44.788;20.486;2023-04-15T13:49:09;3.28;;;1.20;;
54945;SDS011;40846;44.788;20.486;2023-04-15T13:51:35;4.50;;;1.05;;
54945;SDS011;40846;44.788;20.486;2023-04-15T13:54:04;3.95;;;1.20;;
54945;SDS011;40846;44.788;20.486;2023-04-15T13:56:49;3.33;;;1.30;;
54945;SDS011;40846;44.788;20.486;2023-04-15T13:59:18;2.83;;;1.20;;
54945;SDS011;40846;44.788;20.486;2023-04-15T14:01:47;2.33;;;1.20;;
54945;SDS011;40846;44.788;20.486;2023-04-15T14:04:13;3.45;;;1.27;;
54945;SDS011;40846;44.788;20.486;2023-04-15T14:06:39;1.77;;;1.10;;
54945;SDS011;40846;44.788;20.486;2023-04-15T14:09:05;2.00;;;0.93;;
54945;SDS011;40846;44.788;20.486;2023-04-15T14:11:31;3.50;;;1.30;;
54945;SDS011;40846;44.788;20.486;2023-04-15T14:14:01;2.90;;;1.00;;
54945;SDS011;40846;44.788;20.486;2023-04-15T14:16:27;1.88;;;1.20;;
54945;SDS011;40846;44.788;20.486;2023-04-15T14:18:53;3.38;;;1.20;;
54945;SDS011;40846;44.788;20.486;2023-04-15T14:21:19;5.70;;;1.23;;
54945;SDS011;40846;44.788;20.486;2023-04-15T14:23:45;3.05;;;1.15;;
54945;SDS011;40846;44.788;20.486;2023-04-15T14:26:11;6.97;;;1.27;;
54945;SDS011;40846;44.788;20.486;2023-04-15T14:28:37;1.35;;;0.77;;
54945;SDS011;40846;44.788;20.486;2023-04-15T14:31:03;10.38;;;1.88;;
54945;SDS011;40846;44.788;20.486;2023-04-15T14:33:30;2.88;;;1.27;;
54945;SDS011;40846;44.788;20.486;2023-04-15T14:35:57;2.40;;;1.13;;
54945;SDS011;40846;44.788;20.486;2023-04-15T14:38:23;2.33;;;1.20;;
54945;SDS011;40846;44.788;20.486;2023-04-15T14:40:49;4.10;;;1.23;;
54945;SDS011;40846;44.788;20.486;2023-04-15T14:43:14;3.67;;;1.25;;
54945;SDS011;40846;44.788;20.486;2023-04-15T14:45:41;12.55;;;1.23;;
54945;SDS011;40846;44.788;20.486;2023-04-15T14:48:06;1.60;;;0.93;;
54945;SDS011;40846;44.788;20.486;2023-04-15T14:50:34;9.63;;;1.08;;
54945;SDS011;40846;44.788;20.486;2023-04-15T14:53:02;4.57;;;1.33;;
54945;SDS011;40846;44.788;20.486;2023-04-15T14:55:29;2.83;;;1.20;;
54945;SDS011;40846;44.788;20.486;2023-04-15T14:57:55;2.67;;;1.02;;
54945;SDS011;40846;44.788;20.486;2023-04-15T15:00:21;5.68;;;1.17;;
54945;SDS011;40846;44.788;20.486;2023-04-15T15:02:47;1.83;;;0.90;;
54945;SDS011;40846;44.788;20.486;2023-04-15T15:05:13;1.52;;;1.00;;
54945;SDS011;40846;44.788;20.486;2023-04-15T15:07:40;2.55;;;1.00;;
54945;SDS011;40846;44.788;20.486;2023-04-15T15:10:06;2.33;;;1.27;;
54945;SDS011;40846;44.788;20.486;2023-04-15T15:12:32;1.67;;;1.10;;
54945;SDS011;40846;44.788;20.486;2023-04-15T15:14:58;3.45;;;1.30;;
54945;SDS011;40846;44.788;20.486;2023-04-15T15:17:24;2.67;;;1.30;;